Time;durP1;ratioP1;P1;durP2;ratioP2;P2;SDS_P1;SDS_P2;PMS_P1;PMS_P2;Temp;Humidity;BMP_temperature;BMP_pressure;BME280_temperature;BME280_humidity;BME280_pressure;Samples;Min_cycle;Max_cycle;Signal;HPM_P1;HPM_P2
2023/10/06 00:02:10;;;;;;;7.65;1.70;;;13.90;99.90;;;;;;4875612;29;20049;-86
2023/10/06 00:04:38;;;;;;;8.20;1.70;;;13.90;99.90;;;;;;4889519;29;20423;-86
2023/10/06 00:07:08;;;;;;;4.20;1.73;;;13.90;99.90;;;;;;4889695;29;20028;-85
2023/10/06 00:09:34;;;;;;;7.82;1.60;;;13.80;99.90;;;;;;4889288;29;20025;-85
2023/10/06 00:12:03;;;;;;;5.13;1.35;;;13.80;99.90;;;;;;4888855;29;20514;-86
2023/10/06 00:14:48;;;;;;;5.45;1.65;;;13.80;99.90;;;;;;4889442;29;20119;-86
2023/10/06 00:17:18;;;;;;;7.25;1.83;;;13.80;99.90;;;;;;4888645;29;20032;-87
2023/10/06 00:19:51;;;;;;;7.00;1.40;;;13.70;99.90;;;;;;4879797;29;20068;-85
2023/10/06 00:24:59;;;;;;;5.35;1.40;;;13.70;99.90;;;;;;4887797;29;20037;-85
2023/10/06 00:27:29;;;;;;;8.05;1.73;;;13.70;99.90;;;;;;4886278;29;20048;-86
2023/10/06 00:29:55;;;;;;;4.15;1.45;;;13.70;99.90;;;;;;4888130;29;20036;-87
2023/10/06 00:32:27;;;;;;;5.07;1.42;;;13.70;99.90;;;;;;4886516;29;20406;-85
2023/10/06 00:35:04;;;;;;;4.30;1.48;;;13.70;99.90;;;;;;4886007;29;20063;-85
2023/10/06 00:37:35;;;;;;;6.45;1.40;;;13.70;99.90;;;;;;4886769;29;20553;-85
2023/10/06 00:40:01;;;;;;;4.85;1.50;;;13.70;99.90;;;;;;4888243;29;20115;-87
2023/10/06 00:42:27;;;;;;;5.65;1.70;;;13.70;99.90;;;;;;4885865;29;20104;-86
2023/10/06 00:44:53;;;;;;;5.95;2.22;;;13.70;99.90;;;;;;4886662;29;20059;-85
2023/10/06 00:47:21;;;;;;;6.60;1.50;;;13.80;99.90;;;;;;4869885;29;20316;-86
2023/10/06 00:49:46;;;;;;;7.95;1.58;;;13.80;99.90;;;;;;4888727;29;20394;-86
2023/10/06 00:52:15;;;;;;;7.10;1.73;;;13.80;99.90;;;;;;4888577;29;20077;-87
2023/10/06 00:54:44;;;;;;;9.15;1.90;;;13.90;99.90;;;;;;4888684;29;20036;-86
2023/10/06 00:57:18;;;;;;;7.70;1.80;;;13.90;99.90;;;;;;4889224;29;20033;-86
2023/10/06 00:59:44;;;;;;;8.20;1.90;;;13.90;99.90;;;;;;4888658;29;20120;-85
2023/10/06 01:02:11;;;;;;;8.48;1.88;;;13.90;99.90;;;;;;4872604;29;20040;-85
2023/10/06 01:04:44;;;;;;;10.35;2.03;;;13.90;99.90;;;;;;4889498;29;20127;-85
2023/10/06 01:07:12;;;;;;;7.82;1.75;;;13.80;99.90;;;;;;4889340;29;20047;-86
2023/10/06 01:09:38;;;;;;;6.65;1.50;;;13.80;99.90;;;;;;4888428;29;20032;-86
2023/10/06 01:12:10;;;;;;;7.60;1.70;;;13.80;99.90;;;;;;4872455;29;20178;-86
2023/10/06 01:14:36;;;;;;;7.32;1.50;;;13.80;99.90;;;;;;4871545;29;20104;-86
2023/10/06 01:17:14;;;;;;;4.97;1.67;;;13.80;99.90;;;;;;4875271;29;20120;-86
2023/10/06 01:19:47;;;;;;;8.77;1.80;;;13.70;99.90;;;;;;4890143;29;20040;-86
2023/10/06 01:22:28;;;;;;;7.63;1.60;;;13.70;99.90;;;;;;4871361;29;20056;-86
2023/10/06 01:24:54;;;;;;;6.55;1.65;;;13.60;99.90;;;;;;4879038;29;20037;-85
2023/10/06 01:27:25;;;;;;;11.77;1.70;;;13.70;99.90;;;;;;4886303;29;20029;-86
2023/10/06 01:30:14;;;;;;;7.85;1.60;;;13.60;99.90;;;;;;4890223;29;20090;-87
2023/10/06 01:32:41;;;;;;;8.32;1.95;;;13.60;99.90;;;;;;4874898;29;20154;-86
2023/10/06 01:35:34;;;;;;;8.25;1.75;;;13.60;99.90;;;;;;4890273;29;20402;-85
2023/10/06 01:38:00;;;;;;;6.93;1.30;;;13.60;99.90;;;;;;4889209;29;20192;-84
2023/10/06 01:42:53;;;;;;;6.93;1.58;;;13.50;99.90;;;;;;4890040;29;20044;-86
2023/10/06 01:45:21;;;;;;;5.55;1.73;;;13.50;99.90;;;;;;4889598;29;20044;-86
2023/10/06 01:47:56;;;;;;;7.88;1.30;;;13.40;99.90;;;;;;4889790;29;20044;-86
2023/10/06 01:50:27;;;;;;;6.88;1.67;;;13.40;99.90;;;;;;4888678;29;20035;-86
2023/10/06 01:52:56;;;;;;;6.97;1.40;;;13.40;99.90;;;;;;4888575;29;20040;-86
2023/10/06 01:55:24;;;;;;;4.32;1.63;;;13.40;99.90;;;;;;4874784;29;20041;-86
2023/10/06 01:57:51;;;;;;;7.07;1.75;;;13.30;99.90;;;;;;4887253;29;20065;-86
2023/10/06 02:00:26;;;;;;;7.38;1.73;;;13.30;99.90;;;;;;4888279;29;20487;-87
2023/10/06 02:02:52;;;;;;;9.38;2.20;;;13.30;99.90;;;;;;4889346;29;20032;-86
2023/10/06 02:05:18;;;;;;;9.32;2.40;;;13.30;99.90;;;;;;4887649;29;20082;-86
2023/10/06 02:07:44;;;;;;;11.32;2.45;;;13.20;99.90;;;;;;4889822;29;20052;-85
2023/10/06 02:10:15;;;;;;;6.20;2.10;;;13.20;99.90;;;;;;4889766;29;20046;-87
2023/10/06 02:12:41;;;;;;;9.07;2.30;;;13.20;99.90;;;;;;4889654;29;20096;-87
2023/10/06 02:15:10;;;;;;;5.72;1.55;;;13.20;99.90;;;;;;4887926;29;20144;-88
2023/10/06 02:17:42;;;;;;;7.72;1.85;;;13.20;99.90;;;;;;4869105;29;20083;-86
2023/10/06 02:22:53;;;;;;;5.05;1.88;;;13.20;99.90;;;;;;4871909;29;20032;-87
2023/10/06 02:25:20;;;;;;;5.05;1.90;;;13.10;99.90;;;;;;4889268;29;20041;-85
2023/10/06 02:27:50;;;;;;;7.82;2.97;;;13.10;99.90;;;;;;4890733;29;20147;-87
2023/10/06 02:30:19;;;;;;;7.10;2.72;;;13.10;99.90;;;;;;4882369;29;20354;-86
2023/10/06 02:32:45;;;;;;;9.45;2.60;;;13.10;99.90;;;;;;4885165;29;20104;-86
2023/10/06 02:35:12;;;;;;;11.70;2.80;;;13.10;99.90;;;;;;4887164;29;20040;-86
2023/10/06 02:37:39;;;;;;;9.48;2.53;;;13.10;99.90;;;;;;4889132;29;20130;-86
2023/10/06 02:40:13;;;;;;;10.30;2.63;;;13.10;99.90;;;;;;4889396;29;20586;-86
2023/10/06 02:42:52;;;;;;;4.85;2.17;;;13.10;99.90;;;;;;4892081;29;20486;-86
2023/10/06 02:45:20;;;;;;;10.95;2.17;;;13.10;99.90;;;;;;4890201;29;20033;-85
2023/10/06 02:47:51;;;;;;;5.05;2.03;;;13.10;99.90;;;;;;4890940;29;20128;-87
2023/10/06 02:50:20;;;;;;;10.10;2.55;;;13.10;99.90;;;;;;4888724;29;20052;-86
2023/10/06 02:52:47;;;;;;;11.77;2.50;;;13.10;99.90;;;;;;4888800;29;20033;-86
2023/10/06 02:55:19;;;;;;;8.20;2.20;;;13.10;99.90;;;;;;4888078;29;20036;-87
2023/10/06 02:57:50;;;;;;;8.02;2.10;;;13.10;99.90;;;;;;4887996;29;20219;-86
2023/10/06 03:03:02;;;;;;;10.10;2.47;;;13.00;99.90;;;;;;4890105;29;20462;-86
2023/10/06 03:05:38;;;;;;;8.02;2.30;;;13.00;99.90;;;;;;4889062;29;20060;-86
2023/10/06 03:08:08;;;;;;;10.48;2.30;;;13.00;99.90;;;;;;4889789;29;20028;-86
2023/10/06 03:10:44;;;;;;;6.40;2.27;;;12.90;99.90;;;;;;4888213;29;20033;-87
2023/10/06 03:13:36;;;;;;;7.20;2.40;;;12.90;99.90;;;;;;4886189;29;20087;-86
2023/10/06 03:16:02;;;;;;;7.40;2.20;;;12.90;99.90;;;;;;4873793;29;20074;-86
2023/10/06 03:18:30;;;;;;;6.22;1.83;;;12.80;99.90;;;;;;4891621;29;20115;-86
2023/10/06 03:23:58;;;;;;;6.68;2.10;;;12.70;99.90;;;;;;4886638;29;20049;-86
2023/10/06 03:26:33;;;;;;;4.93;2.20;;;12.70;99.90;;;;;;4890517;29;20108;-86
2023/10/06 03:29:02;;;;;;;7.40;2.33;;;12.60;99.90;;;;;;4889181;29;20151;-85
2023/10/06 03:31:47;;;;;;;9.38;2.53;;;12.60;99.90;;;;;;4889979;29;20056;-87
2023/10/06 03:34:15;;;;;;;9.43;2.60;;;12.70;99.90;;;;;;4885845;29;20086;-86
2023/10/06 03:36:47;;;;;;;7.82;2.30;;;12.70;99.90;;;;;;4889762;29;20048;-86
2023/10/06 03:39:13;;;;;;;;;;;12.70;99.90;;;;;;4889261;29;20024;-85
2023/10/06 03:41:41;;;;;;;8.13;2.00;;;12.70;99.90;;;;;;4886805;29;19988;-86
2023/10/06 03:44:07;;;;;;;9.23;2.28;;;12.80;99.90;;;;;;4888526;29;20039;-88
2023/10/06 03:46:37;;;;;;;16.15;2.58;;;12.80;99.90;;;;;;4888101;29;20092;-86
2023/10/06 03:49:04;;;;;;;10.13;2.17;;;12.90;99.90;;;;;;4888926;29;20246;-86
2023/10/06 03:51:33;;;;;;;10.52;2.20;;;12.90;99.90;;;;;;4886443;29;20037;-87
2023/10/06 03:53:59;;;;;;;5.85;2.30;;;12.90;99.90;;;;;;4886730;29;20427;-87
2023/10/06 03:56:25;;;;;;;10.25;2.28;;;13.00;99.90;;;;;;4887955;29;20087;-87
2023/10/06 03:58:50;;;;;;;4.90;1.85;;;13.10;99.90;;;;;;4887491;29;20442;-86
2023/10/06 04:01:25;;;;;;;10.27;2.70;;;13.20;99.90;;;;;;4886876;29;20092;-85
2023/10/06 04:03:54;;;;;;;6.88;2.33;;;13.20;99.90;;;;;;4888850;29;20032;-87
2023/10/06 04:06:23;;;;;;;10.60;2.10;;;13.20;99.90;;;;;;4887654;29;20088;-87
2023/10/06 04:08:49;;;;;;;9.63;2.78;;;13.30;99.90;;;;;;4889290;29;20032;-86
2023/10/06 04:11:15;;;;;;;10.05;2.55;;;13.30;99.90;;;;;;4888397;29;20029;-88
2023/10/06 04:13:41;;;;;;;7.13;1.98;;;13.40;99.90;;;;;;4887320;29;20052;-86
2023/10/06 04:16:07;;;;;;;7.68;2.55;;;13.40;99.90;;;;;;4886141;29;20078;-85
2023/10/06 04:18:33;;;;;;;6.43;2.38;;;13.30;99.90;;;;;;4884689;29;20362;-87
2023/10/06 04:20:59;;;;;;;8.90;2.40;;;13.30;99.90;;;;;;4886029;29;20032;-86
2023/10/06 04:23:24;;;;;;;8.23;2.35;;;13.30;99.90;;;;;;4876110;29;20120;-86
2023/10/06 04:25:55;;;;;;;7.50;2.17;;;13.30;99.90;;;;;;4881038;29;20527;-85
2023/10/06 04:28:27;;;;;;;4.97;1.73;;;13.30;99.90;;;;;;4886716;29;20124;-87
2023/10/06 04:30:54;;;;;;;7.70;1.88;;;13.30;99.90;;;;;;4886757;29;20510;-86
2023/10/06 04:33:20;;;;;;;9.00;1.77;;;13.30;99.90;;;;;;4888904;29;20431;-86
2023/10/06 04:35:56;;;;;;;7.32;1.83;;;13.40;99.90;;;;;;4889627;29;20075;-87
2023/10/06 04:38:29;;;;;;;7.20;2.13;;;13.40;99.90;;;;;;4890920;29;20031;-85
2023/10/06 04:40:56;;;;;;;9.38;2.10;;;13.40;99.90;;;;;;4889289;29;20056;-86
2023/10/06 04:43:23;;;;;;;8.98;2.10;;;13.50;99.90;;;;;;4880313;29;20064;-87
2023/10/06 04:45:50;;;;;;;9.05;1.83;;;13.50;99.90;;;;;;4891286;29;20032;-86
2023/10/06 04:48:18;;;;;;;12.00;2.25;;;13.50;99.90;;;;;;4890921;29;20127;-86
2023/10/06 04:50:44;;;;;;;7.45;2.00;;;13.40;99.90;;;;;;4885206;29;20065;-87
2023/10/06 04:53:11;;;;;;;5.65;1.75;;;13.40;99.90;;;;;;4888991;29;20918;-86
2023/10/06 04:55:38;;;;;;;10.02;2.40;;;13.40;99.90;;;;;;4886768;29;20153;-87
2023/10/06 04:58:14;;;;;;;7.80;2.22;;;13.30;99.90;;;;;;4888795;29;20039;-86
2023/10/06 05:00:41;;;;;;;5.93;2.13;;;13.30;99.90;;;;;;4887325;29;20033;-86
2023/10/06 05:03:09;;;;;;;11.27;2.45;;;13.30;99.90;;;;;;4887409;29;20443;-86
2023/10/06 05:05:37;;;;;;;9.45;2.53;;;13.30;99.90;;;;;;4887873;29;20060;-86
2023/10/06 05:08:04;;;;;;;10.15;2.20;;;13.40;99.90;;;;;;4888703;29;20051;-85
2023/10/06 05:10:31;;;;;;;6.10;2.15;;;13.40;99.90;;;;;;4890724;29;20041;-87
2023/10/06 05:13:02;;;;;;;8.02;2.10;;;13.40;99.90;;;;;;4889045;29;20115;-87
2023/10/06 05:15:30;;;;;;;8.40;2.70;;;13.50;99.90;;;;;;4890567;29;20494;-86
2023/10/06 05:17:56;;;;;;;8.73;1.88;;;13.50;99.90;;;;;;4890704;29;20492;-85
2023/10/06 05:20:23;;;;;;;8.00;2.33;;;13.50;99.90;;;;;;4882858;29;20039;-87
2023/10/06 05:22:50;;;;;;;11.45;2.33;;;13.50;99.90;;;;;;4886296;29;20039;-86
2023/10/06 05:25:19;;;;;;;8.25;2.45;;;13.50;99.90;;;;;;4886393;29;20064;-86
2023/10/06 05:27:46;;;;;;;11.55;2.30;;;13.50;99.90;;;;;;4885600;29;20064;-89
2023/10/06 05:30:13;;;;;;;8.48;1.73;;;13.50;99.90;;;;;;4886953;29;20040;-87
2023/10/06 05:32:42;;;;;;;7.93;1.80;;;13.50;99.90;;;;;;4885500;29;20041;-87
2023/10/06 05:35:10;;;;;;;6.90;2.25;;;13.40;99.90;;;;;;4870706;29;20113;-86
2023/10/06 05:37:36;;;;;;;11.07;2.10;;;13.50;99.90;;;;;;4886272;29;20375;-86
2023/10/06 05:40:02;;;;;;;6.82;2.17;;;13.40;99.90;;;;;;4884322;29;20036;-86
2023/10/06 05:42:27;;;;;;;5.50;2.10;;;13.40;99.90;;;;;;4886100;29;20029;-86
2023/10/06 05:44:54;;;;;;;5.18;1.98;;;13.40;99.90;;;;;;4871155;29;20044;-86
2023/10/06 05:47:19;;;;;;;6.63;1.70;;;13.40;99.90;;;;;;4882585;29;20036;-87
2023/10/06 05:49:49;;;;;;;10.75;1.95;;;13.50;99.90;;;;;;4886891;29;20038;-87
2023/10/06 05:52:16;;;;;;;7.38;2.20;;;13.50;99.90;;;;;;4886853;29;20112;-86
2023/10/06 05:54:42;;;;;;;8.18;1.75;;;13.50;99.90;;;;;;4882874;29;20049;-86
2023/10/06 05:57:09;;;;;;;9.95;1.85;;;13.40;99.90;;;;;;4883202;29;20127;-86
2023/10/06 05:59:36;;;;;;;8.85;1.65;;;13.40;99.90;;;;;;4885802;29;20036;-86
2023/10/06 06:02:04;;;;;;;7.03;2.03;;;13.40;99.90;;;;;;4884344;29;20495;-86
2023/10/06 06:04:30;;;;;;;9.65;1.80;;;13.50;99.90;;;;;;4884571;29;20032;-85
2023/10/06 06:07:02;;;;;;;6.30;1.90;;;13.40;99.90;;;;;;4876039;29;20036;-86
2023/10/06 06:09:30;;;;;;;163.10;95.30;;;13.40;99.90;;;;;;4871887;29;20183;-85
2023/10/06 06:11:58;;;;;;;25.80;15.82;;;13.40;99.90;;;;;;4877797;29;20099;-86
2023/10/06 06:14:24;;;;;;;11.68;3.28;;;13.40;99.90;;;;;;4869353;29;20340;-86
2023/10/06 06:16:50;;;;;;;11.23;2.28;;;13.40;99.90;;;;;;4881166;29;20040;-86
2023/10/06 06:19:16;;;;;;;9.45;2.45;;;13.40;99.90;;;;;;4882252;29;20067;-87
2023/10/06 06:21:42;;;;;;;8.57;2.22;;;13.50;99.90;;;;;;4864387;29;20029;-85
2023/10/06 06:24:08;;;;;;;9.65;2.75;;;13.60;99.90;;;;;;4861957;29;20416;-86
2023/10/06 06:26:37;;;;;;;8.80;2.00;;;13.60;99.90;;;;;;4861226;29;20036;-86
2023/10/06 06:29:08;;;;;;;6.43;1.70;;;13.70;99.90;;;;;;4871569;29;20135;-87
2023/10/06 06:31:34;;;;;;;8.23;2.30;;;13.80;99.90;;;;;;4879258;29;20043;-86
2023/10/06 06:34:06;;;;;;;7.40;2.40;;;14.00;99.90;;;;;;4872206;29;20051;-86
2023/10/06 06:36:32;;;;;;;7.15;2.00;;;14.10;99.90;;;;;;4872745;29;20028;-87
2023/10/06 06:38:59;;;;;;;7.82;1.90;;;14.10;99.90;;;;;;4881547;29;20071;-86
2023/10/06 06:41:25;;;;;;;14.57;2.20;;;14.20;99.90;;;;;;4880557;29;20044;-86
2023/10/06 06:43:58;;;;;;;7.93;2.90;;;14.30;99.90;;;;;;4874565;29;20036;-87
2023/10/06 06:46:24;;;;;;;9.38;2.03;;;14.40;99.90;;;;;;4883077;29;20513;-85
2023/10/06 06:48:50;;;;;;;11.15;2.08;;;14.50;99.90;;;;;;4883308;29;20105;-85
2023/10/06 06:51:15;;;;;;;5.47;1.98;;;14.40;99.90;;;;;;4884395;29;20037;-86
2023/10/06 06:53:41;;;;;;;16.27;2.28;;;14.50;99.90;;;;;;4886643;29;20447;-85
2023/10/06 06:56:10;;;;;;;7.03;2.30;;;14.60;99.90;;;;;;4881967;29;20367;-85
2023/10/06 06:58:37;;;;;;;7.05;1.85;;;14.70;99.90;;;;;;4882982;29;20105;-82
2023/10/06 07:01:05;;;;;;;9.30;2.00;;;14.80;99.90;;;;;;4882406;29;20115;-87
2023/10/06 07:03:31;;;;;;;12.20;1.92;;;15.00;99.90;;;;;;4883665;29;20111;-86
2023/10/06 07:05:57;;;;;;;8.52;2.15;;;15.10;99.90;;;;;;4881726;29;20262;-86
2023/10/06 07:08:23;;;;;;;11.07;2.05;;;15.30;99.90;;;;;;4878080;29;20049;-86
2023/10/06 07:10:53;;;;;;;5.55;1.75;;;15.50;99.90;;;;;;4880679;29;20040;-86
2023/10/06 07:13:22;;;;;;;8.82;2.10;;;15.60;99.90;;;;;;4885205;29;20028;-86
2023/10/06 07:15:49;;;;;;;9.30;2.28;;;15.80;99.90;;;;;;4883659;29;20376;-87
2023/10/06 07:18:15;;;;;;;7.78;2.17;;;16.10;99.90;;;;;;4885307;29;20036;-87
2023/10/06 07:20:40;;;;;;;6.97;1.88;;;16.30;99.90;;;;;;4874989;29;20069;-86
2023/10/06 07:23:06;;;;;;;8.25;1.77;;;16.50;99.90;;;;;;4881856;29;20037;-87
2023/10/06 07:25:32;;;;;;;6.68;1.70;;;16.60;99.90;;;;;;4883997;29;20360;-87
2023/10/06 07:27:58;;;;;;;5.35;1.30;;;16.60;99.90;;;;;;4885844;29;20493;-87
2023/10/06 07:30:28;;;;;;;6.10;1.45;;;16.70;99.90;;;;;;4886885;29;20224;-86
2023/10/06 07:32:55;;;;;;;5.68;1.73;;;16.80;99.90;;;;;;4881463;29;20132;-87
2023/10/06 07:35:37;;;;;;;6.07;1.70;;;16.90;99.90;;;;;;4885479;29;20032;-86
2023/10/06 07:38:03;;;;;;;6.63;1.73;;;17.10;99.90;;;;;;4887958;29;20032;-85
2023/10/06 07:40:28;;;;;;;6.82;1.35;;;17.30;99.90;;;;;;4880578;29;20123;-87
2023/10/06 07:42:58;;;;;;;5.57;1.17;;;17.60;99.90;;;;;;4888019;29;20621;-87
2023/10/06 07:45:26;;;;;;;6.18;1.52;;;17.90;99.90;;;;;;4883313;29;20499;-87
2023/10/06 07:47:53;;;;;;;5.60;1.27;;;18.10;99.90;;;;;;4879093;29;20175;-86
2023/10/06 07:50:19;;;;;;;6.45;1.35;;;18.50;99.90;;;;;;4881750;29;20476;-88
2023/10/06 07:52:46;;;;;;;7.40;1.55;;;18.90;99.90;;;;;;4877957;29;20081;-88
2023/10/06 07:55:13;;;;;;;7.07;1.33;;;19.50;99.90;;;;;;4877297;29;20036;-86
2023/10/06 07:57:45;;;;;;;5.25;1.23;;;20.50;99.90;;;;;;4876222;29;20032;-86
2023/10/06 08:00:32;;;;;;;4.82;1.15;;;21.30;99.90;;;;;;4884723;29;20545;-86
2023/10/06 08:03:00;;;;;;;6.05;1.40;;;21.50;99.90;;;;;;4883585;29;20064;-86
2023/10/06 08:05:26;;;;;;;4.18;1.45;;;21.60;99.90;;;;;;4883971;29;20831;-87
2023/10/06 08:07:52;;;;;;;3.80;1.25;;;21.60;99.90;;;;;;4886332;29;20024;-87
2023/10/06 08:10:18;;;;;;;5.57;1.30;;;22.20;99.90;;;;;;4887346;29;20039;-88
2023/10/06 08:12:52;;;;;;;5.00;1.50;;;23.20;99.90;;;;;;4886488;29;20136;-87
2023/10/06 08:15:21;;;;;;;5.28;1.35;;;24.00;99.90;;;;;;4885812;29;20036;-88
2023/10/06 08:17:50;;;;;;;5.80;1.50;;;24.30;99.90;;;;;;4889452;29;20432;-87
2023/10/06 08:20:16;;;;;;;3.22;1.40;;;24.30;99.90;;;;;;4888737;29;20882;-87
2023/10/06 08:22:46;;;;;;;6.72;1.33;;;24.00;99.90;;;;;;4889500;29;20039;-87
2023/10/06 08:25:18;;;;;;;6.72;1.35;;;23.40;99.90;;;;;;4884180;29;20049;-87
2023/10/06 08:27:46;;;;;;;4.75;1.45;;;23.20;99.90;;;;;;4875702;29;20472;-87
2023/10/06 08:30:18;;;;;;;5.95;1.95;;;23.40;99.90;;;;;;4888679;29;20510;-87
2023/10/06 08:32:53;;;;;;;6.63;1.23;;;23.30;99.90;;;;;;4880001;29;20054;-87
2023/10/06 08:35:20;;;;;;;3.67;1.05;;;23.30;99.90;;;;;;4886205;29;20048;-87
2023/10/06 08:37:48;;;;;;;6.25;1.30;;;23.00;99.90;;;;;;4890034;29;20025;-88
2023/10/06 08:40:26;;;;;;;7.78;1.40;;;22.80;99.90;;;;;;4890002;29;20052;-87
2023/10/06 08:42:53;;;;;;;5.53;1.58;;;22.70;99.90;;;;;;4887484;29;20342;-88
2023/10/06 08:45:24;;;;;;;4.55;1.50;;;22.50;99.90;;;;;;4886385;29;20111;-88
2023/10/06 08:48:01;;;;;;;6.30;1.52;;;22.50;99.90;;;;;;4889245;29;20024;-87
2023/10/06 08:50:27;;;;;;;4.40;1.30;;;22.20;99.90;;;;;;4888543;29;20044;-87
2023/10/06 08:52:55;;;;;;;2.55;1.13;;;22.10;99.90;;;;;;4888875;29;20044;-88
2023/10/06 08:55:22;;;;;;;6.05;1.70;;;22.00;99.90;;;;;;4886474;29;20056;-87
2023/10/06 08:57:50;;;;;;;4.80;1.58;;;21.90;99.90;;;;;;4882722;29;21101;-87
2023/10/06 09:00:17;;;;;;;4.38;1.08;;;21.80;99.90;;;;;;4874447;29;20033;-87
2023/10/06 09:02:48;;;;;;;2.80;1.20;;;21.90;99.90;;;;;;4882444;29;20128;-87
2023/10/06 09:05:14;;;;;;;4.25;1.50;;;22.40;99.90;;;;;;4888829;29;20201;-86
2023/10/06 09:07:56;;;;;;;6.45;1.40;;;23.10;99.90;;;;;;4888039;29;20013;-88
2023/10/06 09:10:22;;;;;;;5.20;1.55;;;23.90;99.90;;;;;;4880529;29;20045;-87
2023/10/06 09:13:02;;;;;;;6.28;1.50;;;24.90;99.90;;;;;;4889243;29;20063;-88
2023/10/06 09:15:28;;;;;;;5.18;1.35;;;26.50;99.90;;;;;;4884427;29;20040;-87
2023/10/06 09:17:56;;;;;;;3.42;1.65;;;29.10;97.30;;;;;;4889858;29;20044;-88
2023/10/06 09:20:30;;;;;;;5.60;1.67;;;30.80;84.60;;;;;;4889262;29;20063;-87
2023/10/06 09:22:56;;;;;;;4.55;1.33;;;31.40;73.90;;;;;;4885613;29;20051;-88
2023/10/06 09:25:21;;;;;;;4.78;1.20;;;31.40;72.90;;;;;;4885781;29;20029;-89
2023/10/06 09:27:48;;;;;;;4.38;1.35;;;31.40;71.70;;;;;;4880106;23;20124;-68
2023/10/06 09:30:20;;;;;;;3.35;1.25;;;32.70;72.50;;;;;;4854939;29;20518;-66
2023/10/06 09:32:46;;;;;;;3.85;1.40;;;33.70;66.30;;;;;;4859258;29;20076;-66
2023/10/06 09:35:24;;;;;;;7.03;1.38;;;34.30;61.00;;;;;;4859897;29;20045;-65
2023/10/06 09:37:58;;;;;;;5.63;1.48;;;34.10;59.30;;;;;;4863349;29;20033;-66
2023/10/06 09:40:23;;;;;;;4.28;1.20;;;33.20;59.50;;;;;;4858793;29;20043;-66
2023/10/06 09:42:50;;;;;;;3.15;1.20;;;31.80;61.10;;;;;;4863606;29;20033;-66
2023/10/06 09:45:21;;;;;;;5.25;1.15;;;30.70;64.60;;;;;;4864355;29;20029;-65
2023/10/06 09:47:49;;;;;;;7.78;1.30;;;29.40;65.70;;;;;;4856037;29;20112;-65
2023/10/06 09:50:18;;;;;;;6.40;1.40;;;29.30;73.40;;;;;;4862655;29;20053;-65
2023/10/06 09:52:46;;;;;;;4.82;1.60;;;30.00;67.60;;;;;;4864469;29;20043;-66
2023/10/06 09:55:14;;;;;;;7.00;1.23;;;29.90;71.60;;;;;;4863561;29;20040;-65
2023/10/06 09:57:50;;;;;;;4.97;1.52;;;29.60;73.20;;;;;;4862654;29;20112;-66
2023/10/06 10:00:18;;;;;;;3.35;1.15;;;29.70;69.40;;;;;;4863402;29;20033;-65
2023/10/06 10:02:45;;;;;;;8.50;1.40;;;30.60;72.80;;;;;;4862842;29;20267;-66
2023/10/06 10:05:18;;;;;;;5.32;1.40;;;31.90;63.20;;;;;;4861446;29;20036;-65
2023/10/06 10:07:48;;;;;;;7.78;1.40;;;32.30;63.00;;;;;;4862663;29;20401;-66
2023/10/06 10:10:23;;;;;;;5.53;1.37;;;32.50;61.80;;;;;;4864170;29;20036;-65
2023/10/06 10:13:07;;;;;;;4.38;1.35;;;32.80;60.60;;;;;;4861105;29;20033;-66
2023/10/06 10:15:45;;;;;;;5.15;1.23;;;31.90;58.80;;;;;;4857734;29;20145;-66
2023/10/06 10:18:33;;;;;;;4.38;1.40;;;30.50;63.20;;;;;;4851205;29;20116;-66
2023/10/06 10:20:59;;;;;;;4.13;1.33;;;29.30;70.00;;;;;;4860181;29;20045;-65
2023/10/06 10:23:32;;;;;;;5.38;1.42;;;28.50;71.30;;;;;;4861633;29;20554;-66
2023/10/06 10:26:18;;;;;;;3.35;1.33;;;28.10;71.90;;;;;;4849129;29;20120;-66
2023/10/06 10:29:04;;;;;;;5.93;1.40;;;28.30;76.50;;;;;;4851235;29;20049;-65
2023/10/06 10:31:36;;;;;;;3.45;1.27;;;28.60;76.80;;;;;;4865408;29;20036;-66
2023/10/06 10:34:02;;;;;;;5.10;1.50;;;30.00;80.00;;;;;;4860173;29;20089;-66
2023/10/06 10:36:28;;;;;;;3.72;1.30;;;30.70;72.90;;;;;;4865392;29;20499;-66
2023/10/06 10:39:18;;;;;;;2.33;1.10;;;30.70;70.10;;;;;;4864592;29;20585;-65
2023/10/06 10:41:45;;;;;;;4.80;1.30;;;29.90;66.10;;;;;;4864615;29;20040;-65
2023/10/06 10:44:12;;;;;;;4.50;1.33;;;29.70;70.60;;;;;;4883971;29;20044;-66
2023/10/06 10:46:41;;;;;;;4.22;1.40;;;30.20;66.90;;;;;;4881320;29;20163;-65
2023/10/06 10:49:09;;;;;;;4.65;1.20;;;31.50;67.60;;;;;;4866856;29;20060;-66
2023/10/06 10:51:55;;;;;;;8.30;1.38;;;32.50;61.40;;;;;;4865102;29;20063;-65
2023/10/06 10:54:22;;;;;;;4.63;1.20;;;32.40;59.90;;;;;;4867147;29;20047;-65
2023/10/06 10:56:51;;;;;;;3.17;1.27;;;33.00;62.30;;;;;;4866435;29;20056;-66
2023/10/06 10:59:20;;;;;;;5.50;1.48;;;32.90;58.60;;;;;;4864029;29;20064;-65
2023/10/06 11:01:51;;;;;;;5.00;1.30;;;32.20;56.80;;;;;;4862819;29;20065;-66
2023/10/06 11:04:21;;;;;;;5.03;1.17;;;31.20;62.90;;;;;;4864730;29;20041;-65
2023/10/06 11:06:50;;;;;;;5.77;1.70;;;30.00;65.10;;;;;;4862107;29;20025;-66
2023/10/06 11:12:18;;;;;;;6.63;1.60;;;28.00;71.10;;;;;;4859782;29;20249;-65
2023/10/06 11:14:45;;;;;;;4.32;1.23;;;26.50;73.80;;;;;;4870506;29;20097;-66
2023/10/06 11:17:12;;;;;;;6.60;1.35;;;25.60;88.90;;;;;;4853525;29;20200;-65
2023/10/06 11:19:39;;;;;;;3.85;1.30;;;25.30;93.20;;;;;;4852332;29;20037;-64
2023/10/06 11:22:22;;;;;;;7.03;1.63;;;25.30;92.40;;;;;;4856982;29;20095;-65
2023/10/06 11:24:57;;;;;;;6.40;1.70;;;25.60;97.60;;;;;;4855711;29;20060;-64
2023/10/06 11:27:23;;;;;;;4.47;1.30;;;26.10;97.60;;;;;;4856393;29;20048;-65
2023/10/06 11:29:54;;;;;;;6.90;1.70;;;26.60;94.70;;;;;;4855572;29;20037;-65
2023/10/06 11:32:21;;;;;;;4.80;1.60;;;27.30;94.80;;;;;;4854233;29;20031;-65
2023/10/06 11:34:49;;;;;;;7.93;1.42;;;27.80;91.20;;;;;;4856389;29;20294;-65
2023/10/06 11:37:22;;;;;;;7.18;1.55;;;27.70;86.30;;;;;;4859151;29;20123;-66
2023/10/06 11:39:51;;;;;;;5.10;1.42;;;27.50;89.60;;;;;;4860649;29;20037;-66
2023/10/06 11:42:25;;;;;;;6.95;1.73;;;27.20;87.30;;;;;;4855224;29;20059;-65
2023/10/06 11:44:54;;;;;;;6.35;1.40;;;27.00;86.70;;;;;;4856794;29;20592;-66
2023/10/06 11:47:34;;;;;;;4.93;1.60;;;27.00;89.50;;;;;;4856330;29;20059;-66
2023/10/06 11:50:05;;;;;;;6.07;1.10;;;27.30;92.60;;;;;;4857784;29;20042;-65
2023/10/06 11:52:31;;;;;;;;;;;27.40;88.80;;;;;;4855278;29;20029;-65
2023/10/06 11:54:58;;;;;;;6.18;1.58;;;27.40;85.80;;;;;;4855932;29;20279;-66
2023/10/06 11:57:47;;;;;;;6.88;1.83;;;27.40;90.40;;;;;;4855821;29;20108;-66
2023/10/06 12:00:17;;;;;;;4.00;1.30;;;27.50;89.30;;;;;;4856313;29;20539;-65
2023/10/06 12:02:50;;;;;;;6.67;1.53;;;27.40;88.70;;;;;;4500164;29;10000070;-65
2023/10/06 12:05:21;;;;;;;7.85;1.60;;;27.40;91.10;;;;;;4857476;29;20104;-65
2023/10/06 12:07:49;;;;;;;6.07;1.80;;;27.60;88.70;;;;;;4857442;29;20366;-65
2023/10/06 12:10:17;;;;;;;7.47;1.52;;;27.80;90.20;;;;;;4858580;29;20040;-66
2023/10/06 12:12:47;;;;;;;4.82;1.45;;;27.90;90.70;;;;;;4522096;29;10000015;-66
2023/10/06 12:15:16;;;;;;;6.28;1.50;;;27.60;89.30;;;;;;4860649;29;20116;-66
2023/10/06 12:17:43;;;;;;;7.60;1.70;;;27.60;90.50;;;;;;4859239;29;20408;-65
2023/10/06 12:20:13;;;;;;;7.90;1.45;;;27.50;87.80;;;;;;4863045;29;20040;-66
2023/10/06 12:22:43;;;;;;;8.05;1.63;;;27.20;90.60;;;;;;4862688;29;20029;-67
2023/10/06 12:25:15;;;;;;;9.27;1.80;;;26.30;88.70;;;;;;4862529;29;20270;-66
2023/10/06 12:27:44;;;;;;;4.32;1.50;;;26.10;95.20;;;;;;4862486;29;20531;-66
2023/10/06 12:30:11;;;;;;;7.25;1.95;;;25.70;94.70;;;;;;4859062;29;20044;-65
2023/10/06 12:32:37;;;;;;;5.28;1.42;;;25.60;95.90;;;;;;4862380;29;20440;-67
2023/10/06 12:35:06;;;;;;;6.18;1.65;;;25.40;94.10;;;;;;4859901;29;20210;-66
2023/10/06 12:37:40;;;;;;;8.02;1.40;;;25.20;96.90;;;;;;4851061;29;20149;-66
2023/10/06 12:40:10;;;;;;;7.65;1.50;;;25.00;95.70;;;;;;4864682;29;20047;-66
2023/10/06 12:42:39;;;;;;;7.07;1.50;;;24.70;96.80;;;;;;4864167;29;20920;-66
2023/10/06 12:45:07;;;;;;;7.18;1.48;;;24.70;99.20;;;;;;4864626;29;20220;-66
2023/10/06 12:47:33;;;;;;;6.57;1.42;;;24.60;99.50;;;;;;4864831;29;20036;-66
2023/10/06 12:50:04;;;;;;;4.68;1.48;;;24.10;98.10;;;;;;4864262;29;20433;-66
2023/10/06 12:52:34;;;;;;;6.47;1.50;;;23.60;99.90;;;;;;4848452;29;20068;-66
2023/10/06 12:55:05;;;;;;;5.10;1.42;;;23.20;99.90;;;;;;4850036;29;20041;-65
2023/10/06 12:57:34;;;;;;;5.43;1.60;;;22.90;99.90;;;;;;4864075;29;20425;-66
2023/10/06 13:00:00;;;;;;;8.02;1.65;;;22.50;99.90;;;;;;4850549;29;20025;-66
2023/10/06 13:02:26;;;;;;;6.68;1.98;;;22.30;99.90;;;;;;4862050;29;20037;-66
2023/10/06 13:04:53;;;;;;;7.55;1.48;;;22.30;99.90;;;;;;4861529;29;20187;-66
2023/10/06 13:07:18;;;;;;;8.13;1.52;;;22.10;99.90;;;;;;4855925;29;20448;-66
2023/10/06 13:09:49;;;;;;;8.50;1.83;;;22.40;99.90;;;;;;4860734;29;20048;-66
2023/10/06 13:12:18;;;;;;;7.30;1.42;;;22.40;99.90;;;;;;4860932;29;20036;-66
2023/10/06 13:14:43;;;;;;;6.40;1.80;;;22.40;99.90;;;;;;4861817;29;21039;-66